Pedhoulas Leader — C4SX2 — position and weather

sailwx.info

Track history (hours):
 
Tides and Currents Weather Stations Pressure Air Temp Water Temp Dewpoint Dewpoint Depression Visibility Wind Speed Wind Dir Waves Ship Positions

Pedhoulas Leader

Last reported at 2017-Dec-15 16:43 UTC. Time now 2017-Dec-16 09:16 UTC.
Position N 34°20' E 129°48'.

Length 222 m; draft 12.7 m.

Type: Cargo ship. MMSI: 210982000.

Date/timePositionNaut miles runAvg speedWind from/ knotsBaromVisibWave heightAir tempDewpointWater temp
2017-Dec-15 16:43N 34°20' E 129°48'511.7
2017-Dec-15 16:17N 34°24' E 129°52'1111.1
2017-Dec-15 15:17N 34°31' E 130°02'  
2017-Dec-13 04:46N 41°16' E 140°08'4 8.5
2017-Dec-13 04:19N 41°18' E 140°12'3 8.8
2017-Dec-13 03:59N 41°20' E 140°15'4 8.0
2017-Dec-13 03:30N 41°22' E 140°19'5 8.9
2017-Dec-13 02:59N 41°25' E 140°24'4 8.7
2017-Dec-13 02:30N 41°27' E 140°29'5 9.1
2017-Dec-13 02:00N 41°29' E 140°34'5 9.2
2017-Dec-13 01:30N 41°32' E 140°39'4 8.8
2017-Dec-13 01:00N 41°34' E 140°44'4 8.7
2017-Dec-13 00:30N 41°36' E 140°50'4 7.6
2017-Dec-13 00:00N 41°38' E 140°54'3 6.8
2017-Dec-12 23:30N 41°39' E 140°58'3 6.2
2017-Dec-12 23:00N 41°39' E 141°02'4 7.2
2017-Dec-12 22:30N 41°39' E 141°07'4 8.3
2017-Dec-12 22:00N 41°39' E 141°13'5 9.7
2017-Dec-12 21:30N 41°39' E 141°19'4 8.6
2017-Dec-12 21:00N 41°39' E 141°25'4 8.0
2017-Dec-12 20:29N 41°39' E 141°31'12 8.3
2017-Dec-12 18:59N 41°39' E 141°47'  
Track history (hours):
 
Tides and Currents Weather Stations Pressure Air Temp Water Temp Dewpoint Dewpoint Depression Visibility Wind Speed Wind Dir Waves Ship Positions

Pedhoulas Leader

Last reported at 2017-Dec-15 16:43 UTC. Time now 2017-Dec-16 09:16 UTC.
Position N 34°20' E 129°48'.

Length 222 m; draft 12.7 m.

Type: Cargo ship. MMSI: 210982000.

Date/timePositionNaut miles runAvg speedWind from/ knotsBaromVisibWave heightAir tempDewpointWater temp
2017-Dec-15 16:43N 34°20' E 129°48'511.7
2017-Dec-15 16:17N 34°24' E 129°52'1111.1
2017-Dec-15 15:17N 34°31' E 130°02'  
2017-Dec-13 04:46N 41°16' E 140°08'4 8.5
2017-Dec-13 04:19N 41°18' E 140°12'3 8.8
2017-Dec-13 03:59N 41°20' E 140°15'4 8.0
2017-Dec-13 03:30N 41°22' E 140°19'5 8.9
2017-Dec-13 02:59N 41°25' E 140°24'4 8.7
2017-Dec-13 02:30N 41°27' E 140°29'5 9.1
2017-Dec-13 02:00N 41°29' E 140°34'5 9.2
2017-Dec-13 01:30N 41°32' E 140°39'4 8.8
2017-Dec-13 01:00N 41°34' E 140°44'4 8.7
2017-Dec-13 00:30N 41°36' E 140°50'4 7.6
2017-Dec-13 00:00N 41°38' E 140°54'3 6.8
2017-Dec-12 23:30N 41°39' E 140°58'3 6.2
2017-Dec-12 23:00N 41°39' E 141°02'4 7.2
2017-Dec-12 22:30N 41°39' E 141°07'4 8.3
2017-Dec-12 22:00N 41°39' E 141°13'5 9.7
2017-Dec-12 21:30N 41°39' E 141°19'4 8.6
2017-Dec-12 21:00N 41°39' E 141°25'4 8.0
2017-Dec-12 20:29N 41°39' E 141°31'12 8.3
2017-Dec-12 18:59N 41°39' E 141°47'  

Dump ship's entire track history